Time;durP1;ratioP1;P1;durP2;ratioP2;P2;SDS_P1;SDS_P2;PMS_P1;PMS_P2;Temp;Humidity;BMP_temperature;BMP_pressure;BME280_temperature;BME280_humidity;BME280_pressure;Samples;Min_cycle;Max_cycle;Signal;HPM_P1;HPM_P2
2023/06/27 00:00:20;;;;;;;10.35;5.25;;;;;;;;;;5043800;28;20037;-67
2023/06/27 00:02:48;;;;;;;5.68;4.93;;;;;;;;;;5032847;28;20029;-68
2023/06/27 00:05:14;;;;;;;7.53;4.65;;;;;;;;;;5037891;28;20402;-67
2023/06/27 00:07:43;;;;;;;8.88;4.68;;;;;;;;;;5051973;28;20033;-68
2023/06/27 00:10:10;;;;;;;9.77;5.18;;;;;;;;;;5028644;28;20197;-68
2023/06/27 00:12:37;;;;;;;8.88;4.90;;;;;;;;;;5003122;28;20021;-69
2023/06/27 00:15:06;;;;;;;8.00;4.68;;;;;;;;;;5036506;28;20023;-68
2023/06/27 00:17:40;;;;;;;8.43;5.07;;;;;;;;;;5052444;28;20025;-68
2023/06/27 00:20:08;;;;;;;5.20;4.70;;;;;;;;;;5053860;28;20032;-68
2023/06/27 00:22:34;;;;;;;5.68;4.80;;;;;;;;;;5032788;28;20040;-68
2023/06/27 00:25:00;;;;;;;11.02;5.10;;;;;;;;;;5039414;28;20402;-68
2023/06/27 00:27:26;;;;;;;8.35;5.00;;;;;;;;;;5052019;28;20025;-68
2023/06/27 00:29:51;;;;;;;5.38;4.63;;;;;;;;;;5037595;28;20035;-69
2023/06/27 00:32:17;;;;;;;4.90;4.40;;;;;;;;;;5050234;28;20025;-68
2023/06/27 00:34:42;;;;;;;5.18;4.25;;;;;;;;;;5019182;28;20070;-68
2023/06/27 00:37:07;;;;;;;6.10;4.70;;;;;;;;;;5027455;28;20095;-68
2023/06/27 00:39:33;;;;;;;6.10;4.53;;;;;;;;;;5054211;28;20028;-68
2023/06/27 00:41:58;;;;;;;5.65;4.75;;;;;;;;;;5032956;28;20033;-69
2023/06/27 00:44:24;;;;;;;8.32;4.90;;;;;;;;;;5055122;28;20033;-69
2023/06/27 00:46:51;;;;;;;8.30;4.72;;;;;;;;;;5054234;28;20041;-68
2023/06/27 00:49:19;;;;;;;5.18;4.68;;;;;;;;;;5035366;28;20120;-68
2023/06/27 00:51:47;;;;;;;10.02;5.07;;;;;;;;;;5052385;28;20060;-68
2023/06/27 00:54:15;;;;;;;11.48;4.63;;;;;;;;;;5018314;28;20052;-68
2023/06/27 00:56:41;;;;;;;6.13;4.13;;;;;;;;;;5024194;28;20029;-69
2023/06/27 00:59:06;;;;;;;5.35;4.57;;;;;;;;;;5054449;28;20039;-69
2023/06/27 01:01:32;;;;;;;10.13;4.47;;;;;;;;;;5032619;28;20040;-69
2023/06/27 01:03:58;;;;;;;6.72;4.55;;;;;;;;;;5038219;28;20130;-69
2023/06/27 01:06:26;;;;;;;5.80;4.20;;;;;;;;;;5052712;28;20039;-70
2023/06/27 01:08:59;;;;;;;5.90;4.70;;;;;;;;;;5053992;28;20059;-69
2023/06/27 01:11:30;;;;;;;8.27;4.95;;;;;;;;;;5040248;28;20063;-69
2023/06/27 01:13:57;;;;;;;5.40;4.35;;;;;;;;;;5019696;28;20052;-68
2023/06/27 01:16:29;;;;;;;4.90;4.40;;;;;;;;;;5038967;28;20133;-68
2023/06/27 01:18:57;;;;;;;4.45;4.05;;;;;;;;;;5053828;28;20021;-69
2023/06/27 01:21:25;;;;;;;4.80;4.25;;;;;;;;;;5051989;28;20399;-68
2023/06/27 01:23:58;;;;;;;6.03;4.05;;;;;;;;;;5043317;28;20040;-68
2023/06/27 01:26:24;;;;;;;5.68;4.05;;;;;;;;;;5053320;28;20036;-68
2023/06/27 01:28:50;;;;;;;4.45;4.05;;;;;;;;;;5042974;28;20029;-69
2023/06/27 01:31:40;;;;;;;4.13;3.70;;;;;;;;;;5052489;28;20044;-69
2023/06/27 01:34:10;;;;;;;6.07;4.32;;;;;;;;;;5054255;28;20063;-68
2023/06/27 01:36:44;;;;;;;8.07;4.40;;;;;;;;;;5051778;28;20036;-68
2023/06/27 01:39:15;;;;;;;7.93;4.40;;;;;;;;;;5024190;28;20067;-68
2023/06/27 01:41:44;;;;;;;9.50;4.47;;;;;;;;;;5036664;28;20037;-68
2023/06/27 01:44:14;;;;;;;5.90;4.00;;;;;;;;;;5047915;28;20065;-68
2023/06/27 01:46:41;;;;;;;6.15;4.05;;;;;;;;;;5031281;28;20038;-68
2023/06/27 01:49:08;;;;;;;9.15;4.22;;;;;;;;;;5025125;28;20098;-68
2023/06/27 01:51:33;;;;;;;4.28;3.72;;;;;;;;;;5051313;28;20478;-69
2023/06/27 01:53:59;;;;;;;5.55;4.20;;;;;;;;;;5051853;28;20112;-69
2023/06/27 01:56:25;;;;;;;6.88;3.72;;;;;;;;;;5055523;28;20091;-67
2023/06/27 01:58:50;;;;;;;6.70;3.85;;;;;;;;;;5038513;28;20033;-68
2023/06/27 02:01:16;;;;;;;5.93;3.80;;;;;;;;;;5050611;28;20045;-68
2023/06/27 02:03:41;;;;;;;7.70;3.83;;;;;;;;;;5035448;28;20037;-69
2023/06/27 02:06:07;;;;;;;6.68;3.97;;;;;;;;;;5047948;28;20049;-68
2023/06/27 02:08:32;;;;;;;8.25;4.07;;;;;;;;;;5042017;28;20104;-68
2023/06/27 02:10:58;;;;;;;10.57;4.20;;;;;;;;;;5021443;28;20606;-68
2023/06/27 02:13:24;;;;;;;5.15;3.83;;;;;;;;;;5044705;28;20028;-68
2023/06/27 02:15:49;;;;;;;5.05;3.83;;;;;;;;;;5051336;28;20091;-68
2023/06/27 02:18:15;;;;;;;4.65;3.40;;;;;;;;;;5043433;28;20028;-68
2023/06/27 02:20:40;;;;;;;6.38;3.42;;;;;;;;;;5040494;28;20041;-68
2023/06/27 02:23:05;;;;;;;6.57;3.67;;;;;;;;;;5039147;28;20429;-68
2023/06/27 02:25:31;;;;;;;6.20;3.58;;;;;;;;;;5046881;28;20179;-68
2023/06/27 02:27:56;;;;;;;4.47;3.80;;;;;;;;;;5055437;28;20037;-68
2023/06/27 02:30:22;;;;;;;4.05;3.65;;;;;;;;;;5031385;28;20052;-68
2023/06/27 02:32:47;;;;;;;7.72;3.67;;;;;;;;;;5043685;28;20031;-68
2023/06/27 02:35:15;;;;;;;5.68;3.78;;;;;;;;;;5028722;28;20045;-68
2023/06/27 02:37:41;;;;;;;7.40;3.60;;;;;;;;;;5028732;28;20029;-68
2023/06/27 02:40:07;;;;;;;13.90;3.72;;;;;;;;;;5030631;28;20056;-67
2023/06/27 02:42:32;;;;;;;5.03;3.47;;;;;;;;;;5035004;28;20605;-67
2023/06/27 02:44:58;;;;;;;6.25;3.65;;;;;;;;;;5017183;28;20040;-67
2023/06/27 02:47:23;;;;;;;6.97;3.63;;;;;;;;;;5037873;28;20035;-66
2023/06/27 02:49:48;;;;;;;5.82;3.28;;;;;;;;;;5037784;28;20041;-52
2023/06/27 02:52:14;;;;;;;7.50;3.92;;;;;;;;;;5037064;28;20031;-66
2023/06/27 02:54:39;;;;;;;8.35;3.92;;;;;;;;;;5041323;28;20088;-68
2023/06/27 02:57:05;;;;;;;5.47;3.75;;;;;;;;;;5035263;28;20090;-67
2023/06/27 02:59:31;;;;;;;4.63;4.03;;;;;;;;;;5040639;28;20032;-67
2023/06/27 03:01:56;;;;;;;15.85;3.72;;;;;;;;;;5018784;28;20072;-67
2023/06/27 03:04:22;;;;;;;5.82;3.10;;;;;;;;;;5036840;28;20043;-67
2023/06/27 03:06:48;;;;;;;3.42;3.13;;;;;;;;;;5036854;28;20044;-69
2023/06/27 03:09:13;;;;;;;5.97;3.30;;;;;;;;;;5056017;28;20367;-67
2023/06/27 03:11:39;;;;;;;5.72;3.47;;;;;;;;;;5034456;28;20029;-68
2023/06/27 03:14:04;;;;;;;3.75;2.83;;;;;;;;;;5042421;28;20108;-68
2023/06/27 03:16:30;;;;;;;7.53;3.20;;;;;;;;;;5053980;28;20041;-68
2023/06/27 03:18:55;;;;;;;5.05;3.13;;;;;;;;;;5006243;28;20963;-68
2023/06/27 03:21:20;;;;;;;4.50;3.45;;;;;;;;;;5036344;28;20406;-66
2023/06/27 03:23:46;;;;;;;4.60;3.47;;;;;;;;;;5021373;28;20058;-67
2023/06/27 03:26:11;;;;;;;4.20;3.80;;;;;;;;;;5032869;28;20041;-67
2023/06/27 03:28:37;;;;;;;7.07;3.50;;;;;;;;;;5056197;28;20415;-69
2023/06/27 03:31:02;;;;;;;8.57;3.70;;;;;;;;;;5035948;28;20375;-67
2023/06/27 03:33:27;;;;;;;4.82;3.50;;;;;;;;;;5034936;28;20120;-68
2023/06/27 03:35:53;;;;;;;6.10;3.33;;;;;;;;;;5021556;28;20117;-68
2023/06/27 03:38:18;;;;;;;4.80;3.60;;;;;;;;;;5034252;28;20025;-68
2023/06/27 03:40:44;;;;;;;5.65;3.10;;;;;;;;;;5054278;28;20476;-67
2023/06/27 03:43:13;;;;;;;5.78;3.22;;;;;;;;;;5037884;28;20063;-67
2023/06/27 03:45:40;;;;;;;7.15;3.50;;;;;;;;;;5036066;28;20045;-69
2023/06/27 03:48:06;;;;;;;3.95;3.22;;;;;;;;;;5054892;28;20033;-68
2023/06/27 03:50:32;;;;;;;5.10;3.22;;;;;;;;;;5053649;28;20037;-70
2023/06/27 03:53:00;;;;;;;6.80;3.20;;;;;;;;;;5034570;28;20036;-69
2023/06/27 03:55:25;;;;;;;6.30;3.33;;;;;;;;;;5030569;28;20044;-69
2023/06/27 03:57:50;;;;;;;7.68;3.00;;;;;;;;;;5040163;28;20391;-69
2023/06/27 04:00:16;;;;;;;5.40;3.63;;;;;;;;;;5041394;28;20030;-68
2023/06/27 04:02:42;;;;;;;3.78;3.17;;;;;;;;;;5054177;28;20027;-69
2023/06/27 04:05:07;;;;;;;15.48;3.50;;;;;;;;;;5037423;28;20029;-68
2023/06/27 04:07:33;;;;;;;4.95;3.13;;;;;;;;;;5046567;28;20459;-69
2023/06/27 04:09:58;;;;;;;4.68;3.67;;;;;;;;;;5053869;28;20035;-69
2023/06/27 04:12:24;;;;;;;5.57;3.15;;;;;;;;;;5054036;28;20040;-69
2023/06/27 04:14:49;;;;;;;7.03;3.00;;;;;;;;;;5034311;28;20021;-67
2023/06/27 04:17:15;;;;;;;7.38;3.13;;;;;;;;;;5038016;28;20397;-72
2023/06/27 04:19:40;;;;;;;6.32;2.85;;;;;;;;;;5047119;28;20032;-69
2023/06/27 04:22:06;;;;;;;6.20;3.33;;;;;;;;;;5032823;28;20071;-69
2023/06/27 04:24:31;;;;;;;4.53;3.35;;;;;;;;;;5022877;28;20059;-67
2023/06/27 04:26:57;;;;;;;5.22;3.28;;;;;;;;;;5041058;28;20037;-69
2023/06/27 04:29:22;;;;;;;5.18;3.30;;;;;;;;;;5037452;28;20150;-68
2023/06/27 04:31:47;;;;;;;10.70;3.05;;;;;;;;;;5042296;28;20154;-69
2023/06/27 04:34:13;;;;;;;11.93;3.20;;;;;;;;;;5055387;28;20021;-68
2023/06/27 04:36:40;;;;;;;8.20;3.40;;;;;;;;;;5021320;28;20043;-69
2023/06/27 04:39:07;;;;;;;5.13;3.28;;;;;;;;;;5036853;28;20033;-68
2023/06/27 04:41:32;;;;;;;16.27;3.47;;;;;;;;;;5034704;28;20037;-68
2023/06/27 04:43:58;;;;;;;5.22;3.38;;;;;;;;;;5023381;28;20113;-68
2023/06/27 04:46:28;;;;;;;5.05;3.20;;;;;;;;;;5034044;28;20044;-69
2023/06/27 04:48:58;;;;;;;9.15;2.92;;;;;;;;;;5022732;28;20029;-70
2023/06/27 04:51:28;;;;;;;5.35;3.25;;;;;;;;;;5053662;28;20977;-68
2023/06/27 04:53:53;;;;;;;5.07;3.10;;;;;;;;;;5026147;28;20051;-69
2023/06/27 04:56:19;;;;;;;6.15;2.95;;;;;;;;;;5038361;28;20490;-70
2023/06/27 04:58:45;;;;;;;6.57;3.20;;;;;;;;;;5043421;28;20118;-69
2023/06/27 05:01:10;;;;;;;4.43;2.90;;;;;;;;;;5053982;28;20048;-69
2023/06/27 05:03:38;;;;;;;3.67;3.17;;;;;;;;;;5036389;28;20423;-69
2023/06/27 05:06:05;;;;;;;3.20;2.75;;;;;;;;;;5051243;28;20628;-70
2023/06/27 05:08:32;;;;;;;8.52;2.95;;;;;;;;;;5038858;28;20033;-68
2023/06/27 05:10:57;;;;;;;2.80;2.40;;;;;;;;;;5037761;28;20120;-70
2023/06/27 05:13:23;;;;;;;5.55;2.97;;;;;;;;;;5021812;28;20049;-70
2023/06/27 05:15:48;;;;;;;3.00;2.70;;;;;;;;;;5027101;28;20060;-69
2023/06/27 05:18:14;;;;;;;6.32;3.22;;;;;;;;;;5038071;28;20025;-69
2023/06/27 05:20:43;;;;;;;2.70;2.50;;;;;;;;;;5037452;28;20048;-71
2023/06/27 05:23:09;;;;;;;7.82;2.92;;;;;;;;;;5060583;28;20076;-68
2023/06/27 05:25:35;;;;;;;3.60;2.70;;;;;;;;;;5048517;28;20097;-70
2023/06/27 05:28:01;;;;;;;3.67;2.83;;;;;;;;;;5034280;28;20112;-69
2023/06/27 05:30:28;;;;;;;9.98;3.22;;;;;;;;;;5031735;28;20128;-70
2023/06/27 05:32:54;;;;;;;9.75;3.05;;;;;;;;;;5052284;28;20454;-68
2023/06/27 05:35:20;;;;;;;5.97;2.90;;;;;;;;;;5049287;28;20042;-68
2023/06/27 05:37:45;;;;;;;7.68;2.95;;;;;;;;;;5042668;28;20033;-69
2023/06/27 05:40:11;;;;;;;4.97;2.83;;;;;;;;;;5053469;28;20041;-68
2023/06/27 05:42:36;;;;;;;4.80;2.90;;;;;;;;;;5035479;28;20719;-66
2023/06/27 05:45:03;;;;;;;4.47;3.20;;;;;;;;;;5012063;28;20122;-67
2023/06/27 05:47:28;;;;;;;4.03;2.40;;;;;;;;;;5032532;28;20499;-67
2023/06/27 05:49:54;;;;;;;9.70;3.72;;;;;;;;;;5047328;28;20116;-63
2023/06/27 05:52:19;;;;;;;3.85;3.00;;;;;;;;;;5057020;28;20505;-67
2023/06/27 05:54:45;;;;;;;10.55;3.30;;;;;;;;;;5045852;28;20032;-67
2023/06/27 05:57:10;;;;;;;6.47;2.80;;;;;;;;;;5051581;28;20041;-67
2023/06/27 05:59:36;;;;;;;5.40;2.70;;;;;;;;;;5041395;28;20025;-66
2023/06/27 06:02:02;;;;;;;10.93;3.88;;;;;;;;;;5055864;28;20523;-66
2023/06/27 06:04:28;;;;;;;4.63;3.13;;;;;;;;;;5035209;28;20021;-68
2023/06/27 06:06:53;;;;;;;10.07;3.10;;;;;;;;;;5040725;28;20040;-66
2023/06/27 06:09:19;;;;;;;7.25;3.42;;;;;;;;;;5030207;28;20033;-68
2023/06/27 06:11:44;;;;;;;6.90;3.40;;;;;;;;;;5018474;28;20037;-64
2023/06/27 06:14:09;;;;;;;6.85;3.35;;;;;;;;;;5036658;28;20074;-67
2023/06/27 06:16:35;;;;;;;7.38;3.10;;;;;;;;;;5046488;28;20129;-68
2023/06/27 06:19:02;;;;;;;7.63;2.90;;;;;;;;;;5036268;28;20473;-68
2023/06/27 06:21:28;;;;;;;7.90;3.03;;;;;;;;;;5036235;28;20041;-68
2023/06/27 06:23:53;;;;;;;8.15;3.28;;;;;;;;;;5038043;28;20029;-69
2023/06/27 06:26:19;;;;;;;10.90;3.13;;;;;;;;;;5024297;28;20083;-68
2023/06/27 06:28:44;;;;;;;11.73;3.30;;;;;;;;;;5044092;28;20425;-68
2023/06/27 06:31:16;;;;;;;6.10;2.80;;;;;;;;;;5051771;28;20052;-69
2023/06/27 06:33:45;;;;;;;10.45;3.15;;;;;;;;;;5039986;28;20284;-66
2023/06/27 06:36:11;;;;;;;11.30;2.92;;;;;;;;;;5051774;28;20036;-69
2023/06/27 06:38:36;;;;;;;3.60;2.55;;;;;;;;;;5036783;28;20025;-68
2023/06/27 06:41:02;;;;;;;6.88;3.22;;;;;;;;;;5035436;28;20033;-66
2023/06/27 06:43:28;;;;;;;11.10;2.88;;;;;;;;;;5018426;28;20040;-67
2023/06/27 06:45:54;;;;;;;7.13;2.60;;;;;;;;;;5035345;28;20064;-68
2023/06/27 06:48:19;;;;;;;9.10;3.03;;;;;;;;;;5037522;28;20035;-67
2023/06/27 06:50:45;;;;;;;5.20;2.60;;;;;;;;;;5021787;28;20037;-68
2023/06/27 06:53:11;;;;;;;5.03;2.80;;;;;;;;;;5036032;28;20029;-66
2023/06/27 06:55:36;;;;;;;4.28;2.65;;;;;;;;;;5045148;28;20043;-67
2023/06/27 06:58:02;;;;;;;13.32;2.63;;;;;;;;;;5038778;28;20033;-69
2023/06/27 07:00:27;;;;;;;5.50;2.88;;;;;;;;;;5043091;28;20040;-67
2023/06/27 07:02:54;;;;;;;7.03;2.78;;;;;;;;;;5038326;28;20110;-68
2023/06/27 07:05:19;;;;;;;3.90;2.65;;;;;;;;;;5045281;28;20421;-68
2023/06/27 07:07:44;;;;;;;8.38;2.78;;;;;;;;;;5015043;28;20035;-68
2023/06/27 07:10:10;;;;;;;8.23;2.78;;;;;;;;;;5033815;28;20041;-67
2023/06/27 07:12:35;;;;;;;6.78;2.67;;;;;;;;;;5049846;28;20075;-67
2023/06/27 07:15:01;;;;;;;5.53;2.50;;;;;;;;;;5006715;28;20116;-66
2023/06/27 07:17:26;;;;;;;7.90;2.85;;;;;;;;;;5020924;28;20184;-66
2023/06/27 07:19:53;;;;;;;4.97;2.70;;;;;;;;;;5036843;28;20471;-69
2023/06/27 07:22:19;;;;;;;4.95;2.75;;;;;;;;;;5034529;28;20029;-68
2023/06/27 07:24:44;;;;;;;5.93;2.85;;;;;;;;;;5035069;28;20498;-67
2023/06/27 07:27:10;;;;;;;7.20;3.85;;;;;;;;;;5023458;28;20045;-68
2023/06/27 07:29:36;;;;;;;7.40;2.85;;;;;;;;;;5057718;28;20028;-68
2023/06/27 07:32:02;;;;;;;8.80;2.92;;;;;;;;;;5032700;28;20498;-67
2023/06/27 07:34:27;;;;;;;7.85;3.08;;;;;;;;;;5044390;28;20094;-67
2023/06/27 07:36:53;;;;;;;6.32;2.63;;;;;;;;;;5031816;28;20033;-68
2023/06/27 07:39:18;;;;;;;6.60;3.03;;;;;;;;;;5054967;28;20096;-68
2023/06/27 07:41:44;;;;;;;5.30;3.08;;;;;;;;;;5041954;28;20172;-66
2023/06/27 07:44:10;;;;;;;9.20;2.78;;;;;;;;;;5030017;28;20032;-67
2023/06/27 07:46:35;;;;;;;4.50;2.60;;;;;;;;;;5045855;28;20057;-69
2023/06/27 07:49:01;;;;;;;5.28;2.72;;;;;;;;;;5038418;28;20036;-67
2023/06/27 07:51:27;;;;;;;5.43;2.80;;;;;;;;;;5013741;28;20033;-66
2023/06/27 07:53:54;;;;;;;5.18;2.88;;;;;;;;;;5041098;28;20032;-67
2023/06/27 07:56:20;;;;;;;8.43;3.00;;;;;;;;;;5028801;28;20143;-67
2023/06/27 07:58:45;;;;;;;9.45;2.85;;;;;;;;;;5044826;28;20033;-66
2023/06/27 08:01:11;;;;;;;2.38;2.17;;;;;;;;;;5026055;28;20040;-67
2023/06/27 08:03:37;;;;;;;8.68;2.42;;;;;;;;;;5052947;28;20029;-67
2023/06/27 08:06:05;;;;;;;4.93;2.53;;;;;;;;;;5050955;28;20056;-67
2023/06/27 08:08:31;;;;;;;17.20;3.00;;;;;;;;;;5041058;28;20059;-66
2023/06/27 08:10:57;;;;;;;7.72;3.33;;;;;;;;;;5040305;28;20046;-67
2023/06/27 08:13:23;;;;;;;11.32;2.90;;;;;;;;;;5039413;28;20033;-66
2023/06/27 08:15:48;;;;;;;8.68;2.70;;;;;;;;;;5036758;28;20109;-67
2023/06/27 08:18:14;;;;;;;8.40;2.90;;;;;;;;;;5015676;28;20450;-67
2023/06/27 08:20:39;;;;;;;5.47;2.85;;;;;;;;;;5051243;28;20047;-66
2023/06/27 08:23:06;;;;;;;7.18;2.40;;;;;;;;;;5039615;28;20577;-67
2023/06/27 08:25:31;;;;;;;10.15;2.53;;;;;;;;;;5039697;28;20041;-66
2023/06/27 08:27:57;;;;;;;5.68;2.65;;;;;;;;;;5032080;28;20040;-66
2023/06/27 08:30:22;;;;;;;6.43;2.33;;;;;;;;;;5059183;28;20044;-66
2023/06/27 08:32:48;;;;;;;6.25;2.75;;;;;;;;;;5041999;28;20509;-69
2023/06/27 08:35:13;;;;;;;7.90;2.92;;;;;;;;;;5024360;28;20108;-66
2023/06/27 08:37:39;;;;;;;8.15;2.85;;;;;;;;;;5044756;28;20036;-66
2023/06/27 08:40:05;;;;;;;10.13;2.92;;;;;;;;;;5052831;28;20112;-66
2023/06/27 08:42:31;;;;;;;4.35;3.03;;;;;;;;;;5028694;28;20029;-66
2023/06/27 08:45:01;;;;;;;3.47;2.30;;;;;;;;;;5023694;28;20482;-67
2023/06/27 08:47:29;;;;;;;21.95;3.03;;;;;;;;;;5042322;28;20029;-65
2023/06/27 08:50:03;;;;;;;6.57;2.80;;;;;;;;;;5006105;28;20458;-65
2023/06/27 08:52:31;;;;;;;10.15;2.47;;;;;;;;;;5050658;28;20119;-64
2023/06/27 08:54:58;;;;;;;8.13;2.65;;;;;;;;;;5038846;28;20032;-65
2023/06/27 08:57:29;;;;;;;5.47;2.80;;;;;;;;;;5038908;28;20025;-65
2023/06/27 08:59:57;;;;;;;7.05;2.80;;;;;;;;;;5054476;28;20028;-66
2023/06/27 09:02:25;;;;;;;11.13;2.72;;;;;;;;;;5021192;28;20025;-66
2023/06/27 09:04:51;;;;;;;8.68;2.60;;;;;;;;;;5043297;28;20058;-68
2023/06/27 09:07:17;;;;;;;7.10;2.58;;;;;;;;;;5054075;28;20023;-66
2023/06/27 09:09:42;;;;;;;8.00;3.17;;;;;;;;;;5034674;28;20059;-69
2023/06/27 09:12:08;;;;;;;6.90;2.90;;;;;;;;;;5035516;28;20048;-68
2023/06/27 09:14:34;;;;;;;10.55;2.78;;;;;;;;;;5030744;28;20372;-66
2023/06/27 09:17:00;;;;;;;7.93;2.33;;;;;;;;;;4997569;28;20050;-69
2023/06/27 09:19:27;;;;;;;14.00;3.13;;;;;;;;;;4977983;28;20048;-66
2023/06/27 09:21:54;;;;;;;6.03;2.70;;;;;;;;;;5010825;28;20053;-66
2023/06/27 09:24:22;;;;;;;4.18;2.50;;;;;;;;;;5026133;28;20042;-66
2023/06/27 09:26:48;;;;;;;9.77;2.55;;;;;;;;;;5004401;28;20088;-69
2023/06/27 09:29:14;;;;;;;6.63;2.55;;;;;;;;;;5011600;28;20032;-70
2023/06/27 09:31:40;;;;;;;9.23;2.90;;;;;;;;;;5010020;28;20038;-68
2023/06/27 09:34:09;;;;;;;9.68;3.00;;;;;;;;;;5014436;28;20022;-70
2023/06/27 09:36:39;;;;;;;5.05;2.50;;;;;;;;;;5012403;28;20157;-67
2023/06/27 09:39:09;;;;;;;4.65;2.90;;;;;;;;;;5011175;28;20420;-68
2023/06/27 09:41:50;;;;;;;3.47;2.30;;;;;;;;;;5013225;28;20029;-66
2023/06/27 09:44:21;;;;;;;8.23;2.83;;;;;;;;;;5013499;28;20591;-67
2023/06/27 09:46:49;;;;;;;6.47;2.55;;;;;;;;;;5013026;28;20041;-67
2023/06/27 09:49:15;;;;;;;9.27;2.90;;;;;;;;;;5019174;28;20022;-68
2023/06/27 09:51:45;;;;;;;11.32;3.10;;;;;;;;;;5019452;28;20100;-68
2023/06/27 09:54:12;;;;;;;12.73;2.58;;;;;;;;;;5018987;28;20100;-68
2023/06/27 09:56:37;;;;;;;10.52;3.90;;;;;;;;;;5017418;28;20037;-68
2023/06/27 09:59:10;;;;;;;11.38;2.85;;;;;;;;;;5022007;28;20088;-66
2023/06/27 10:01:41;;;;;;;8.85;2.78;;;;;;;;;;5014039;28;20455;-68
2023/06/27 10:04:07;;;;;;;21.08;2.55;;;;;;;;;;5014944;28;20022;-71
2023/06/27 10:06:34;;;;;;;14.40;3.05;;;;;;;;;;5008792;28;20521;-68
2023/06/27 10:09:00;;;;;;;11.30;3.22;;;;;;;;;;5015790;28;20032;-69
2023/06/27 10:11:26;;;;;;;11.43;2.45;;;;;;;;;;5016332;28;20030;-68
2023/06/27 10:13:52;;;;;;;6.90;2.35;;;;;;;;;;5012702;28;20030;-69
2023/06/27 10:16:18;;;;;;;6.97;3.10;;;;;;;;;;4989053;28;20385;-69
2023/06/27 10:18:44;;;;;;;9.65;2.70;;;;;;;;;;5024218;28;20038;-68
2023/06/27 10:21:10;;;;;;;4.97;2.40;;;;;;;;;;5015712;28;20044;-68
2023/06/27 10:23:38;;;;;;;3.90;2.13;;;;;;;;;;5024738;28;20021;-69
2023/06/27 10:26:04;;;;;;;5.22;2.55;;;;;;;;;;5014729;28;20514;-69
2023/06/27 10:28:30;;;;;;;10.75;2.70;;;;;;;;;;4997375;28;20038;-69
2023/06/27 10:30:56;;;;;;;6.30;2.25;;;;;;;;;;4999737;28;20064;-69
2023/06/27 10:33:31;;;;;;;10.48;3.33;;;;;;;;;;5014588;28;20034;-66
2023/06/27 10:36:03;;;;;;;9.73;2.40;;;;;;;;;;5014041;28;20062;-67
2023/06/27 10:38:36;;;;;;;5.97;2.80;;;;;;;;;;5020248;28;20051;-68
2023/06/27 10:41:11;;;;;;;6.03;2.30;;;;;;;;;;5018562;28;20052;-68
2023/06/27 10:43:45;;;;;;;11.23;2.97;;;;;;;;;;5017809;28;20484;-68
2023/06/27 10:46:19;;;;;;;10.32;2.70;;;;;;;;;;5017402;28;20048;-70
2023/06/27 10:49:11;;;;;;;9.18;2.60;;;;;;;;;;5012493;28;20027;-70
2023/06/27 10:51:43;;;;;;;;;;;;;;;;;;5013089;28;20029;-68
2023/06/27 10:54:09;;;;;;;7.07;2.67;;;;;;;;;;5016472;28;20271;-68
2023/06/27 10:56:36;;;;;;;8.15;2.75;;;;;;;;;;5016220;28;20049;-69
2023/06/27 10:59:03;;;;;;;6.75;2.63;;;;;;;;;;5017712;28;20030;-68
2023/06/27 11:01:36;;;;;;;10.05;2.75;;;;;;;;;;5012873;28;20042;-69
2023/06/27 11:04:25;;;;;;;16.65;2.58;;;;;;;;;;5010825;28;20029;-68
2023/06/27 11:07:01;;;;;;;7.40;2.60;;;;;;;;;;5012878;28;20037;-67
2023/06/27 11:09:28;;;;;;;5.68;2.33;;;;;;;;;;5006955;28;20029;-69
2023/06/27 11:11:54;;;;;;;5.88;2.72;;;;;;;;;;5013959;28;20041;-69
2023/06/27 11:14:34;;;;;;;14.63;2.22;;;;;;;;;;5016825;28;20105;-69
2023/06/27 11:17:01;;;;;;;9.05;2.50;;;;;;;;;;5042421;28;20052;-68
2023/06/27 11:19:27;;;;;;;4.75;2.10;;;;;;;;;;5054013;28;20029;-70
2023/06/27 11:21:52;;;;;;;6.22;2.58;;;;;;;;;;5050247;28;20116;-68
2023/06/27 11:24:19;;;;;;;9.00;2.58;;;;;;;;;;5018783;28;20060;-69
2023/06/27 11:26:51;;;;;;;9.63;2.45;;;;;;;;;;5029910;28;20041;-67
2023/06/27 11:29:16;;;;;;;;;;;;;;;;;;5011298;28;20028;-66
2023/06/27 11:31:42;;;;;;;9.18;2.63;;;;;;;;;;5055394;28;19921;-69
2023/06/27 11:34:07;;;;;;;7.47;2.70;;;;;;;;;;5022921;28;20483;-69
2023/06/27 11:36:36;;;;;;;4.60;2.20;;;;;;;;;;5018746;28;20037;-70
2023/06/27 11:39:01;;;;;;;6.82;2.33;;;;;;;;;;5049991;28;20028;-69
2023/06/27 11:41:27;;;;;;;8.38;2.40;;;;;;;;;;5037563;28;20049;-68
2023/06/27 11:43:53;;;;;;;8.85;2.40;;;;;;;;;;5052826;28;20033;-66
2023/06/27 11:46:19;;;;;;;10.60;2.70;;;;;;;;;;5030124;28;20037;-62
2023/06/27 11:48:45;;;;;;;12.82;2.63;;;;;;;;;;5055158;28;20025;-68
2023/06/27 11:51:11;;;;;;;10.63;2.08;;;;;;;;;;5048945;28;20506;-67
2023/06/27 11:53:37;;;;;;;6.90;2.00;;;;;;;;;;5042342;28;20049;-66
2023/06/27 11:56:05;;;;;;;5.43;2.53;;;;;;;;;;5041647;28;20037;-67
2023/06/27 11:58:36;;;;;;;10.80;2.40;;;;;;;;;;5036345;28;20025;-69
2023/06/27 12:01:09;;;;;;;13.32;2.88;;;;;;;;;;5045389;28;20068;-68
2023/06/27 12:03:35;;;;;;;9.65;2.35;;;;;;;;;;5042537;28;20037;-68
2023/06/27 12:06:01;;;;;;;15.88;2.83;;;;;;;;;;5032406;28;20121;-67
2023/06/27 12:08:31;;;;;;;19.70;2.80;;;;;;;;;;5039636;28;20084;-68
2023/06/27 12:11:00;;;;;;;13.23;3.05;;;;;;;;;;5041185;28;20045;-68
2023/06/27 12:13:30;;;;;;;11.52;2.30;;;;;;;;;;5018995;28;20029;-66
2023/06/27 12:15:56;;;;;;;6.28;2.30;;;;;;;;;;5017314;28;20056;-65
2023/06/27 12:18:23;;;;;;;7.88;2.72;;;;;;;;;;5045247;28;20032;-68
2023/06/27 12:20:53;;;;;;;6.72;2.53;;;;;;;;;;5026524;28;20053;-66
2023/06/27 12:23:18;;;;;;;7.93;2.55;;;;;;;;;;5041840;28;20039;-67
2023/06/27 12:25:44;;;;;;;7.63;2.55;;;;;;;;;;5031853;28;20036;-66
2023/06/27 12:28:11;;;;;;;5.90;2.55;;;;;;;;;;5056581;28;20379;-65
2023/06/27 12:30:36;;;;;;;7.28;2.35;;;;;;;;;;5022923;28;20044;-66
2023/06/27 12:33:02;;;;;;;4.03;2.38;;;;;;;;;;5039830;28;20671;-69
2023/06/27 12:35:28;;;;;;;9.27;2.20;;;;;;;;;;5036411;28;20053;-66
2023/06/27 12:37:54;;;;;;;5.82;2.45;;;;;;;;;;5045577;28;20513;-66
2023/06/27 12:40:22;;;;;;;11.48;2.63;;;;;;;;;;5056724;28;20505;-65
2023/06/27 12:42:50;;;;;;;8.90;2.30;;;;;;;;;;5054047;28;20032;-67
2023/06/27 12:45:15;;;;;;;6.60;2.90;;;;;;;;;;5029613;28;20178;-69
2023/06/27 12:47:42;;;;;;;8.60;2.80;;;;;;;;;;5030282;28;20049;-65
2023/06/27 12:50:11;;;;;;;11.80;2.50;;;;;;;;;;5038944;28;20029;-65
2023/06/27 12:52:37;;;;;;;7.07;2.20;;;;;;;;;;5050410;28;20021;-67
2023/06/27 12:55:04;;;;;;;13.23;2.80;;;;;;;;;;5037767;28;20076;-67
2023/06/27 12:57:29;;;;;;;8.48;2.55;;;;;;;;;;5035211;28;20025;-66
2023/06/27 12:59:55;;;;;;;15.52;2.60;;;;;;;;;;5054907;28;20382;-65
2023/06/27 13:02:20;;;;;;;8.07;2.35;;;;;;;;;;5036828;28;20025;-67
2023/06/27 13:04:46;;;;;;;6.97;2.40;;;;;;;;;;5016536;28;20033;-66
2023/06/27 13:07:11;;;;;;;5.88;2.33;;;;;;;;;;5046047;28;20044;-66
2023/06/27 13:09:37;;;;;;;8.30;2.70;;;;;;;;;;5051291;28;20037;-63
2023/06/27 13:12:03;;;;;;;12.30;2.60;;;;;;;;;;5053552;28;20033;-66
2023/06/27 13:14:29;;;;;;;9.73;2.80;;;;;;;;;;5035172;28;20573;-65
2023/06/27 13:16:54;;;;;;;12.27;2.40;;;;;;;;;;5051897;28;20116;-65
2023/06/27 13:19:21;;;;;;;15.25;2.60;;;;;;;;;;5036351;28;20029;-65
2023/06/27 13:21:46;;;;;;;2.95;2.30;;;;;;;;;;5009829;28;20041;-64
2023/06/27 13:24:12;;;;;;;8.25;2.35;;;;;;;;;;5053916;28;20558;-65
2023/06/27 13:26:38;;;;;;;17.98;2.88;;;;;;;;;;5052242;28;20160;-65
2023/06/27 13:29:07;;;;;;;9.43;2.40;;;;;;;;;;5032831;28;20079;-68
2023/06/27 13:31:32;;;;;;;11.95;3.17;;;;;;;;;;5054877;28;20037;-67
2023/06/27 13:33:58;;;;;;;12.48;2.80;;;;;;;;;;5034584;28;20025;-66
2023/06/27 13:36:23;;;;;;;36.53;4.07;;;;;;;;;;5045067;28;20038;-66
2023/06/27 13:38:49;;;;;;;15.82;2.92;;;;;;;;;;5039688;28;20371;-66
2023/06/27 13:41:14;;;;;;;7.95;2.50;;;;;;;;;;5025641;28;20067;-66
2023/06/27 13:43:40;;;;;;;14.05;3.10;;;;;;;;;;5054730;28;20025;-66
2023/06/27 13:46:05;;;;;;;19.42;2.80;;;;;;;;;;5033420;28;20041;-66
2023/06/27 13:48:30;;;;;;;6.78;3.13;;;;;;;;;;5058233;28;20191;-67
2023/06/27 13:50:56;;;;;;;5.53;2.45;;;;;;;;;;5048654;28;20388;-66
2023/06/27 13:53:22;;;;;;;10.13;2.65;;;;;;;;;;5050399;28;20029;-67
2023/06/27 13:55:48;;;;;;;12.07;2.40;;;;;;;;;;5051762;28;20045;-67
2023/06/27 13:58:14;;;;;;;5.82;2.28;;;;;;;;;;5019430;28;20025;-68
2023/06/27 14:00:40;;;;;;;4.93;2.25;;;;;;;;;;5038177;28;20415;-67
2023/06/27 14:03:06;;;;;;;16.98;2.60;;;;;;;;;;5038268;28;20086;-66
2023/06/27 14:05:32;;;;;;;6.53;2.17;;;;;;;;;;5053298;28;20042;-66
2023/06/27 14:07:57;;;;;;;4.78;2.45;;;;;;;;;;5030824;28;20035;-66
2023/06/27 14:10:26;;;;;;;5.75;2.70;;;;;;;;;;5036307;28;20037;-67
2023/06/27 14:12:52;;;;;;;9.88;2.20;;;;;;;;;;5056941;28;20482;-66
2023/06/27 14:15:19;;;;;;;9.43;2.22;;;;;;;;;;5055600;28;20033;-67
2023/06/27 14:17:44;;;;;;;8.82;2.38;;;;;;;;;;5006861;28;20021;-66
2023/06/27 14:20:10;;;;;;;4.80;2.10;;;;;;;;;;5021445;28;20393;-66
2023/06/27 14:22:36;;;;;;;6.75;2.08;;;;;;;;;;5029329;28;20034;-68
2023/06/27 14:25:05;;;;;;;5.90;2.13;;;;;;;;;;5035439;28;20071;-66
2023/06/27 14:27:31;;;;;;;7.13;2.42;;;;;;;;;;5034536;28;20025;-67
2023/06/27 14:29:56;;;;;;;7.85;2.65;;;;;;;;;;5051268;28;20035;-66
2023/06/27 14:32:22;;;;;;;3.80;2.03;;;;;;;;;;5051469;28;20064;-68
2023/06/27 14:34:48;;;;;;;8.02;2.05;;;;;;;;;;5034551;28;20502;-65
2023/06/27 14:37:13;;;;;;;18.90;3.22;;;;;;;;;;5049972;28;20064;-66